Tiempo atmosférico en la estación meteorológica de Tazacorte, Santa Cruz de Tenerife (30 m.)



Fecha
DESCASC
Temp. máxima en grados centígrados (hora)
DESCASC
Temp. mínima en grados centígrados (hora)
DESCASC
Temp. media en grados centígrados
DESCASC
Racha de viento máxima en m/sg (hora)
DESCASC
Velocidad máxima media en intervalos de 10 minutos(hora)
DESCASC
Precipitaciones diarias en mm
DESCASC
Precipitaciones de 00:00 a 06:00 en mm
DESCASC
Precipitaciones de 06:00 a 12:00 en mm
DESCASC
Precipitaciones de 12:00 a 18:00 en mm
DESCASC
Precipitaciones de 18:00 a 24:00 en mm
DESCASC
05-04-2020 24.2 (16:00) 18.5 (02:10) 21.4 5 (13:50) 2.78 (17:50) 0 0 0 0 0
04-04-2020 24.2 (16:10) 17.6 (05:40) 20.9 4.17 (16:30) 2.78 (06:50) 1.2 0 1.2 0 0
03-04-2020 20.9 (19:20) 16.8 (06:30) 18.8 5 (14:10) 2.78 (14:20) 6.9 0 0.2 6.7 0
02-04-2020 24 (16:00) 15.8 (00:00) 19.9 5.83 (17:00) 3.33 (17:40) 0 0 0 0 0
01-04-2020 25.2 (16:10) 15.6 (00:00) 20.4 4.72 (15:00) 2.78 (05:50) 0 0 0 0 0
31-03-2020 22.6 (15:50) 16.2 (00:00) 19.4 5.83 (17:20) 3.33 (17:10) 0.1 0.1 0 0 0
30-03-2020 22.9 (14:50) 16.9 (00:00) 19.9 5.83 (14:00) 2.78 (14:10) 0 0 0 0 0
29-03-2020 21.8 (12:50) 15 (00:00) 18.4 4.44 (18:20) 2.5 (17:50) 0 0 0 0 0
28-03-2020 22.5 (14:20) 14.1 (00:00) 18.3 5 (00:20) 3.61 (00:40) 0 0 0 0 0
27-03-2020 21.3 (14:40) 14.9 (00:00) 18.1 11.67 (20:20) 6.11 (18:50) 0 0 0 0 0
26-03-2020 22.9 (15:40) 15.8 (00:00) 19.3 5.28 (00:40) 3.06 (18:10) 0 0 0 0 0
25-03-2020 21.5 (13:00) 16.3 (00:00) 18.9 4.17 (18:00) 2.5 (18:00) 0 0 0 0 0
24-03-2020 24.7 (14:50) 15.4 (00:00) 20.1 9.72 (17:10) 5 (17:10) 0 0 0 0 0
23-03-2020 23.8 (15:50) 13.5 (00:00) 18.6 12.78 (00:50) 6.67 (00:50) 4.1 4 0.1 0 0
22-03-2020 20.7 (13:10) 14.8 (06:40) 17.8 13.06 (15:30) 7.78 (17:40) 1.1 0 0 0.6 0.5
21-03-2020 24.2 (15:00) 15.6 (00:00) 19.9 6.94 (07:50) 3.89 (07:50) 0 0 0 0 0
20-03-2020 25.7 (15:00) 16.2 (00:00) 21 6.39 (17:00) 3.61 (16:30) 0 0 0 0 0
19-03-2020 25.2 (13:40) 15.5 (00:00) 20.4 7.22 (16:50) 4.44 (16:20) 0 0 0 0 0
18-03-2020 24.9 (15:10) 15.4 (00:00) 20.1 5.28 (16:50) 2.78 (16:30) 0 0 0 0 0
17-03-2020 23.6 (13:50) 16.3 (00:00) 19.9 11.67 (07:00) 3.61 (03:20) 0 0 0 0 0
16-03-2020 24.7 (14:50) 16.6 (00:00) 20.7 12.22 (04:20) 6.67 (04:20) 0 0 0 0 0
15-03-2020 23.5 (15:00) 16.2 (00:00) 19.9 11.39 (19:10) 5.28 (22:00) 0 0 0 0 0
14-03-2020 24 (15:00) 16.6 (00:00) 20.3 5.28 (17:10) 2.78 (12:20) 0 0 0 0 0
13-03-2020 23.2 (14:20) 17.4 (06:20) 20.3 5.83 (16:10) 3.61 (16:00) 0 0 0 0 0
12-03-2020 24.9 (15:00) 15.9 (00:00) 20.4 4.17 (06:00) 2.78 (06:50) 0 0 0 0 0
11-03-2020 -- (--) -- (--) -- -- (--) -- (--) 0.1 0 0.1 0 0
10-03-2020 26.1 (14:40) 17.4 (00:00) 21.8 6.39 (04:40) 3.33 (04:40) 0 0 0 0 0
09-03-2020 26.8 (15:10) 16.8 (00:00) 21.8 5.28 (05:40) 2.78 (06:50) 0 0 0 0 0

Gráficas

Temp. máximas Temp. mínimas Temp. medias Precipitaciones Rachas de viento máximas Velocidades máximas media en intervalos de 10 minutos

Datos horarios

Fecha y hora oficial Temperatura (ºC) Velocidad del viento (km/h) Dirección del viento Racha (km/h) Dirección de racha Precipitación (mm) Presión (hPa) Tendencia (hPa) Humedad (%)
2020-04-07 23:00:00 19.7 5 Noroeste 15 Noroeste 0 1014.3 1.4 80
2020-04-07 22:00:00 19.9 8 Noroeste 15 Noroeste 0 1014.1 1.3 79
2020-04-07 21:00:00 20.3 6 Noroeste 18 Noroeste 0 1013.2 0.5 77
2020-04-07 20:00:00 20.9 9 Noroeste 16 Noroeste 0 1012.9 -0.6 75
2020-04-07 19:00:00 22.4 6 Noroeste 21 Noroeste 0 1012.8 -0.7 69
2020-04-07 18:00:00 22.2 12 Noroeste 24 Noroeste 0 1012.7 -0.9 70
2020-04-07 17:00:00 23.1 10 Noroeste 20 Noroeste 0 1013.5 -0.4 66
2020-04-07 16:00:00 23.3 9 Noroeste 16 Noroeste 0 1013.5 -1.1 65
2020-04-07 15:00:00 23.2 6 Noroeste 14 Noroeste 0 1013.6 -1.4 64
2020-04-07 14:00:00 22.4 2 Noroeste 13 Oeste 0 1013.9 -0.5 68
2020-04-07 13:00:00 23 4 Oeste 12 Oeste 0 1014.6 0.5 70
2020-04-07 12:00:00 23.1 3 Sudoeste 10 Oeste 0 1015 1.1 69
2020-04-07 11:00:00 21.4 3 Sur 9 Sudoeste 0 1014.4 0.9 75
2020-04-07 10:00:00 19.8 3 Sudeste 8 Este 0 1014.1 1.1 80
2020-04-07 09:00:00 17.7 6 Este 12 Este 0 1013.9 1 82
2020-04-07 08:00:00 17.5 10 Este 13 Este 0 1013.5 0.5 79
2020-04-07 07:00:00 17.9 5 Este 12 Sudeste 0 1013 -0.5 83
2020-04-07 06:00:00 18 5 Sudeste 15 Sudeste 0 1012.9 -1.5 86
2020-04-07 05:00:00 17.9 8 Sudeste 12 Este 0 1013 -1.8 85
2020-04-07 04:00:00 18 4 Este 11 Este 0 1013.5 -1.6 83
2020-04-07 03:00:00 18.3 5 Este 8 Este 0 1014.4 -1 84
2020-04-07 02:00:00 18.7 4 Este 6 Este 0 1014.8 -0.5 84
2020-04-07 01:00:00 19.1 2 Este 4 Este 0 1015.1 0.1 84
2020-04-07 00:00:00 19.6 0 Calma 4 Norte 0 1015.4 1.4 86
2020-04-06 23:00:00 19.9 0 Calma 7 Noroeste 0 1015.3 1.6 85
2020-04-06 22:00:00 20 3 Noroeste 8 Noroeste 0 1015 1.6 81
2020-04-06 21:00:00 20.5 3 Noroeste 10 Noroeste 0 1014 0.6 80
2020-04-06 20:00:00 21.3 5 Noroeste 12 Oeste 0 1013.7 0 75
2020-04-06 19:00:00 22.4 6 Noroeste 14 Noroeste 0 1013.4 -0.7 70
2020-04-06 18:00:00 22.9 6 Noroeste 17 Noroeste 0 1013.4 -1 69
2020-04-06 17:00:00 23 7 Noroeste 15 Noroeste 0 1013.7 -1 70
2020-04-06 16:00:00 23.1 5 Noroeste 14 Noroeste 0 1014.1 -1.1 70
2020-04-06 15:00:00 23.6 5 Noroeste 14 Oeste 0 1014.4 -0.9 70
2020-04-06 14:00:00 22.4 5 Noroeste 13 Noroeste 0 1014.7 -0.4 69
2020-04-06 13:00:00 23.6 6 Oeste 12 Noroeste 0 1015.2 0.6 67
2020-04-06 12:00:00 23 3 Sur 9 Sudoeste 0 1015.3 0.9 71
2020-04-06 11:00:00 21 0 Calma 10 Sur 0 1015.1 1.6 78
2020-04-06 10:00:00 20.2 2 Sur 8 Este 0 1014.6 1.8 81
2020-04-06 09:00:00 17.8 5 Este 9 Este 0 1014.4 2.1 76
2020-04-06 08:00:00 17.4 5 Este 8 Este 0 1013.5 1.5 78
2020-04-06 07:00:00 17.9 4 Este 8 Nordeste 0 1012.8 0.4 78
2020-04-06 06:00:00 18.3 3 Nordeste 8 Este 0 1012.3 -0.6 75
2020-04-06 05:00:00 18.3 4 Nordeste 12 Este 0 1012 -1.3 74
2020-04-06 04:00:00 18.7 8 Sudeste 12 Este 0 1012.4 -1.2 83
2020-04-06 03:00:00 18.8 5 Este 10 Este 0 1012.9 -1.2 80
2020-04-06 02:00:00 19.1 5 Sudeste 10 Sudeste 0 1013.3 -0.4 82
2020-04-06 01:00:00 19.4 6 Sudeste 10 Este 0 1013.6 0.6 80
2020-04-06 00:00:00 19.3 0 Calma 6 Sudeste 0 1014.1 1.9 85
2020-04-05 23:00:00 19.8 0 Calma 10 Noroeste 0 1013.7 2 90
2020-04-05 22:00:00 20.1 5 Noroeste 17 Norte 0 1013 1.5 90
2020-04-05 21:00:00 20.6 5 Noroeste 16 Noroeste 0 1012.2 1.1 88
2020-04-05 20:00:00 21.4 8 Noroeste 15 Noroeste 0 1011.7 0.6 82
2020-04-05 19:00:00 22 8 Noroeste 16 Noroeste 0 1011.5 0.5 77
2020-04-05 18:00:00 22.7 8 Noroeste 17 Noroeste 0 1011.1 -0.5 75
2020-04-05 17:00:00 23.2 7 Noroeste 16 Oeste 0 1011.1 -0.6 71
2020-04-05 16:00:00 24.1 7 Noroeste 17 Noroeste 0 1011 -1.1 69
2020-04-05 15:00:00 22.7 10 Noroeste 17 Noroeste 0 1011.6 -0.1 73
2020-04-05 14:00:00 23.3 8 Noroeste 18 Noroeste 0 1011.7 0.2 75
2020-04-05 13:00:00 22.4 9 Noroeste 16 Noroeste 0 1012.1 1.4 80
2020-04-05 12:00:00 21.9 8 Noroeste 15 Noroeste 0 1011.7 1.9 81
2020-04-05 11:00:00 20.6 5 Noroeste 10 Norte 0 1011.5 1.8 85
2020-04-05 10:00:00 20.7 5 Noroeste 8 Noroeste 0 1010.7 1.6 82
2020-04-05 09:00:00 19.5 3 Norte 7 Nordeste 0 1009.8 1.1 82
2020-04-05 08:00:00 19.8 5 Nordeste 14 Este 0 1009.7 1.2 78
2020-04-05 07:00:00 19.3 3 Nordeste 12 Norte 0 1009.1 0.3 82
2020-04-05 06:00:00 19.4 4 Norte 10 Nordeste 0 1008.7 -0.3 79
2020-04-05 05:00:00 19.9 4 Nordeste 9 Nordeste 0 1008.5 0.1 78
2020-04-05 04:00:00 19.2 5 Norte 11 Nordeste 0 1008.8 0.4 76
2020-04-05 03:00:00 19 6 Norte 12 Norte 0 1009 0.5 77
2020-04-05 02:00:00 18.7 3 Nordeste 10 Nordeste 0 1008.4 -0.2 74
2020-04-05 01:00:00 18.8 6 Norte 10 Nordeste 0 1008.4 0.6 78
2020-04-05 00:00:00 19.1 3 Norte 9 Nordeste 0 1008.5 1.8 77
2020-04-04 23:00:00 19.3 6 Nordeste 10 Nordeste 0 1008.6 3.1 80
2020-04-04 22:00:00 19.4 5 Norte 10 Noroeste 0 1007.8 2.6 81
2020-04-04 21:00:00 19.7 6 Noroeste 10 Norte 0 1006.7 1.8 82
2020-04-04 20:00:00 20.4 5 Noroeste 13 Noroeste 0 1005.5 0.7 78
2020-04-04 19:00:00 21.4 5 Noroeste 13 Norte 0 1005.2 0.3 72
2020-04-04 18:00:00 21.8 8 Noroeste 15 Noroeste 0 1004.9 -0.2 70
2020-04-04 17:00:00 23.2 7 Oeste 15 Noroeste 0 1004.8 -0.8 66
2020-04-04 16:00:00 24 6 Oeste 14 Oeste 0 1004.9 -0.8 61
2020-04-04 15:00:00 23 5 Noroeste 14 Noroeste 0 1005.1 -0.4 66
2020-04-04 14:00:00 22.1 4 Noroeste 14 Noroeste 0 1005.6 0.5 69
2020-04-04 13:00:00 21.7 5 Oeste 14 Oeste 0 1005.7 1.4 77
2020-04-04 12:00:00 20.9 2 Oeste 8 Oeste 0.3 1005.5 1.8 81
2020-04-04 11:00:00 19.6 0 Calma 6 Oeste 0 1005.1 1.8 83
2020-04-04 10:00:00 19.2 3 Noroeste 11 Nordeste 0.9 1004.3 1.8 83
2020-04-04 09:00:00 18.7 7 Nordeste 11 Nordeste 0 1003.7 1.7 76
2020-04-04 08:00:00 18.2 7 Nordeste 11 Nordeste 0 1003.3 0.9 76
2020-04-04 07:00:00 18.2 6 Nordeste 14 Este 0 1002.5 -0.1 73
2020-04-04 06:00:00 17.8 4 Nordeste 11 Este 0 1002 -0.8 81
2020-04-04 05:00:00 18 6 Nordeste 10 Norte 0 1002.4 -0.8 86
2020-04-04 04:00:00 18.6 4 Nordeste 8 Este 0 1002.6 -0.9 84
2020-04-04 03:00:00 18.6 4 Nordeste 11 Norte 0 1002.8 -0.9 88
2020-04-04 02:00:00 18.7 0 Calma 8 Oeste 0 1003.2 -0.3 88
2020-04-04 01:00:00 18.6 0 Calma 11 Este 0 1003.5 0.6 82
2020-04-04 00:00:00 18.8 3 Nordeste 12 Norte 0 1003.7 1.4 89
2020-04-03 23:00:00 19.2 5 Norte 9 Norte 0 1003.5 1.5 91
2020-04-03 22:00:00 19.5 0 Calma 9 Oeste 0 1002.9 1.1 93
2020-04-03 21:00:00 19.9 0 Calma 7 Oeste 0 1002.3 0.4 93
2020-04-03 20:00:00 20.4 2 Oeste 10 Oeste 0 1002 0 93
2020-04-03 19:00:00 20.5 4 Sur 13 Sur 0 1001.8 -0.8 94
2020-04-03 18:00:00 20 5 Sur 16 Este 1.1 1001.9 -1.5 95
2020-04-03 17:00:00 19.2 4 Sudeste 17 Sur 2.1 1002 -2.1 96
2020-04-03 16:00:00 19.2 6 Sur 16 Sudeste 0.5 1002.6 -2.3 94
2020-04-03 15:00:00 18.9 7 Sudeste 18 Sudeste 1 1003.4 -1.8 92
2020-04-03 14:00:00 19 8 Sur 14 Sudeste 1 1004.1 -1.1 93
2020-04-03 13:00:00 18.9 6 Sudeste 12 Sudeste 1 1004.9 -0.1 93
2020-04-03 12:00:00 19.4 5 Sudeste 11 Sur 0.2 1005.2 0.2 89
2020-04-03 11:00:00 19.5 6 Sudeste 13 Sur 0 1005.2 0.4 81
2020-04-03 10:00:00 18.6 0 Calma 9 Sudeste 0 1005 0.8 78
2020-04-03 09:00:00 17.6 6 Sudeste 11 Este 0 1005 0.1 79
2020-04-03 08:00:00 17.4 7 Este 13 Este 0 1004.8 -0.1 77
2020-04-03 07:00:00 16.9 7 Este 13 Este 0 1004.2 -1.6 73
2020-04-03 06:00:00 17.1 5 Sudeste 14 Sudeste 0 1004.9 -1.3 78
2020-04-03 05:00:00 17.1 7 Este 13 Este 0 1004.9 -2.2 74
2020-04-03 04:00:00 17 5 Este 13 Este 0 1005.8 -2.2 70
2020-04-03 03:00:00 17.4 8 Este 13 Sudeste 0 1006.2 -2 74
2020-04-03 02:00:00 17.6 5 Sudeste 12 Este 0 1007.1 -1.8 78
2020-04-03 01:00:00 17.8 5 Sudeste 9 Este 0 1008 -0.6 75
2020-04-03 00:00:00 18.3 3 Sudeste 8 Sudeste 0 1008.2 0 75
2020-04-02 23:00:00 18.3 2 Sudeste 9 Sudeste 0 1008.9 1.1 75
2020-04-02 22:00:00 18.9 4 Sur 14 Sur 0 1008.6 0.3 74
2020-04-02 21:00:00 19.3 5 Sur 13 Sur 0 1008.2 0.1 72
2020-04-02 20:00:00 19.9 6 Sur 14 Sur 0 1007.8 0 69
2020-04-02 19:00:00 22.2 10 Sur 17 Sur 0 1008.3 -0.1 64
2020-04-02 18:00:00 21.7 8 Sur 21 Sur 0 1008.1 -1.4 64
2020-04-02 17:00:00 22.7 9 Sur 21 Sur 0 1007.8 -2.1 62
2020-04-02 16:00:00 23.9 8 Sur 18 Noroeste 0 1008.4 -2.2 59
2020-04-02 15:00:00 22 11 Noroeste 20 Noroeste 0 1009.5 -1.3 62
2020-04-02 14:00:00 21.5 8 Noroeste 18 Noroeste 0 1009.9 -0.9 66
2020-04-02 13:00:00 22.9 4 Oeste 17 Sur 0 1010.6 0.7 65
2020-04-02 12:00:00 22 5 Sudoeste 12 Sudoeste 0 1010.8 1.4 65
2020-04-02 11:00:00 20.1 0 Calma 8 Oeste 0 1010.8 2.1 69
2020-04-02 10:00:00 18.4 0 Calma 9 Este 0 1009.9 1.5 74
2020-04-02 09:00:00 16.2 6 Este 10 Este 0 1009.4 1.3 74
2020-04-02 08:00:00 16 7 Este 11 Este 0 1008.7 0.2 72
2020-04-02 07:00:00 16.1 6 Este 12 Este 0 1008.4 -0.1 72
2020-04-02 06:00:00 16.3 8 Este 11 Este 0 1008.1 -1.3 71
2020-04-02 05:00:00 16.5 7 Este 10 Este 0 1008.5 -1.6 74
2020-04-02 04:00:00 16.6 6 Este 11 Este 0 1008.5 -2.2 72
2020-04-02 03:00:00 17 5 Este 9 Este 0 1009.4 -1.4 71
2020-04-02 02:00:00 17.7 4 Este 8 Este 0 1010.1 -0.4 74
2020-04-02 01:00:00 17.7 4 Este 7 Este 0 1010.7 0.9 75
2020-04-02 00:00:00 18.6 2 Nordeste 4 Norte 0 1010.8 1.4 73
2020-04-01 23:00:00 18.9 0 Calma 5 Noroeste 0 1010.5 1.5 73
2020-04-01 22:00:00 19 3 Noroeste 6 Noroeste 0 1009.8 1 72
2020-04-01 21:00:00 19.4 0 Calma 8 Noroeste 0 1009.4 0.6 68
2020-04-01 20:00:00 19.8 2 Noroeste 8 Noroeste 0 1009 0.3 67
2020-04-01 19:00:00 20.3 3 Noroeste 13 Noroeste 0 1008.8 0.1 64
2020-04-01 18:00:00 21.6 6 Noroeste 13 Oeste 0 1008.8 0 61
2020-04-01 17:00:00 23.4 5 Oeste 14 Oeste 0 1008.7 -0.9 53
2020-04-01 16:00:00 24.4 6 Sudoeste 16 Noroeste 0 1008.7 -1.5 54
2020-04-01 15:00:00 21.8 9 Noroeste 17 Oeste 0 1008.8 -1.5 59
2020-04-01 14:00:00 23 6 Oeste 14 Sudoeste 0 1009.6 -0.5 56
2020-04-01 13:00:00 22.2 5 Sudoeste 12 Sudoeste 0 1010.2 0.3 57
2020-04-01 12:00:00 22.1 6 Sudoeste 12 Sudoeste 0 1010.3 0.7 60
2020-04-01 11:00:00 20 3 Sudoeste 8 Sudoeste 0 1010.1 1.3 67
2020-04-01 10:00:00 18.2 0 Calma 10 Nordeste 0 1009.9 1.5 69
2020-04-01 09:00:00 16.2 8 Este 13 Este 0 1009.6 1.7 70
2020-04-01 08:00:00 15.8 9 Este 12 Este 0 1008.8 0.8 70
2020-04-01 07:00:00 15.9 8 Este 13 Este 0 1008.4 0 69
2020-04-01 06:00:00 15.9 9 Este 14 Este 0 1007.9 -1 68
2020-04-01 05:00:00 16 9 Este 13 Este 0 1008 -0.7 70
2020-04-01 04:00:00 16.6 7 Este 11 Este 0 1008.4 -0.9 69
2020-04-01 03:00:00 16.9 6 Este 12 Este 0 1008.9 -0.5 70
2020-04-01 02:00:00 17.3 8 Sudeste 14 Este 0 1008.7 -0.6 70
2020-04-01 01:00:00 17.3 8 Este 13 Este 0 1009.3 0.6 71
2020-04-01 00:00:00 17.5 8 Este 12 Este 0 1009.4 1.2 71
2020-03-31 23:00:00 17.9 3 Este 12 Noroeste 0 1009.3 1.9 75
2020-03-31 22:00:00 17.9 5 Noroeste 14 Norte 0 1008.7 1.5 75
2020-03-31 21:00:00 18.3 6 Noroeste 16 Noroeste 0 1008.2 1 71
2020-03-31 20:00:00 19.3 8 Noroeste 17 Noroeste 0 1007.4 0.5 67
2020-03-31 19:00:00 20.6 9 Noroeste 17 Noroeste 0 1007.2 -0.1 62
2020-03-31 18:00:00 21.2 9 Noroeste 21 Noroeste 0 1007.2 -0.3 60
2020-03-31 17:00:00 22.1 10 Noroeste 21 Noroeste 0 1006.9 -0.7 59
2020-03-31 16:00:00 21.9 10 Noroeste 18 Noroeste 0 1007.3 -0.2 58
2020-03-31 15:00:00 21.9 10 Noroeste 20 Oeste 0 1007.5 0.1 58
2020-03-31 14:00:00 22.2 10 Noroeste 20 Noroeste 0 1007.6 0.8 57
2020-03-31 13:00:00 21.6 10 Noroeste 17 Noroeste 0 1007.5 1.2 56
2020-03-31 12:00:00 21 8 Noroeste 17 Noroeste 0 1007.4 1.2 57
2020-03-31 11:00:00 19.5 0 Calma 10 Noroeste 0 1006.8 1.3 63
2020-03-31 10:00:00 18.1 0 Calma 6 Este 0 1006.3 1.1 64
2020-03-31 09:00:00 16.5 5 Este 9 Este 0 1006.2 1 67
2020-03-31 08:00:00 16.7 5 Nordeste 11 Norte 0 1005.5 0.1 69
2020-03-31 07:00:00 17.1 5 Norte 10 Norte 0 1005.2 -0.2 69
2020-03-31 06:00:00 17.1 3 Nordeste 10 Norte 0 1005.2 -0.6 70
2020-03-31 05:00:00 17.5 4 Norte 9 Norte 0 1005.4 -0.8 72
2020-03-31 04:00:00 18 5 Norte 14 Norte 0 1005.4 -1.2 72
2020-03-31 03:00:00 17.2 7 Nordeste 13 Norte 0 1005.8 -1.3 86
2020-03-31 02:00:00 17.5 5 Norte 14 Norte 0 1006.2 -1.1 86
2020-03-31 01:00:00 17.4 6 Norte 18 Noroeste 0.1 1006.6 -0.3 94
2020-03-31 00:00:00 18.1 10 Noroeste 17 Noroeste 0 1007.1 0.4 89
2020-03-30 23:00:00 18.7 8 Noroeste 16 Noroeste 0 1007.3 1 83
2020-03-30 22:00:00 19.1 3 Noroeste 13 Norte 0 1006.9 0.7 75
2020-03-30 21:00:00 18.7 4 Noroeste 13 Noroeste 0 1006.7 0.3 79
2020-03-30 20:00:00 19.6 6 Noroeste 15 Noroeste 0 1006.3 -0.6 78
2020-03-30 19:00:00 20.8 9 Noroeste 18 Noroeste 0 1006.2 -1.2 72
2020-03-30 18:00:00 21.3 10 Noroeste 19 Noroeste 0 1006.4 -1.7 72
2020-03-30 17:00:00 21.8 8 Noroeste 18 Noroeste 0 1006.9 -1.8 71
2020-03-30 16:00:00 21.8 5 Oeste 17 Noroeste 0 1007.4 -1.6 70
2020-03-30 15:00:00 22.7 8 Noroeste 18 Noroeste 0 1008.1 -1.3 67
2020-03-30 14:00:00 21.7 9 Noroeste 21 Noroeste 0 1008.7 -0.3 68
2020-03-30 13:00:00 21 4 Noroeste 14 Oeste 0 1009 0.3 70
2020-03-30 12:00:00 20.6 7 Noroeste 18 Noroeste 0 1009.4 0.8 70
2020-03-30 11:00:00 20 6 Noroeste 15 Noroeste 0 1009 0.6 71
2020-03-30 10:00:00 18.7 0 Calma 14 Norte 0 1008.7 0.7 74
2020-03-30 09:00:00 17.8 5 Nordeste 14 Nordeste 0 1008.6 0.5 76
2020-03-30 08:00:00 17.5 6 Nordeste 14 Norte 0 1008.4 0.1 75
2020-03-30 07:00:00 17.6 4 Nordeste 10 Nordeste 0 1008 -0.8 74
2020-03-30 06:00:00 17.4 5 Este 11 Nordeste 0 1008.1 -1.4 74
2020-03-30 05:00:00 16.9 6 Este 12 Este 0 1008.3 -1.9 73
2020-03-30 04:00:00 17.4 5 Nordeste 13 Este 0 1008.8 -1.9 72
2020-03-30 03:00:00 17.5 6 Nordeste 11 Nordeste 0 1009.5 -1.5 71
2020-03-30 02:00:00 17.7 4 Norte 14 Norte 0 1010.2 -0.7 70
2020-03-30 01:00:00 18.1 4 Norte 13 Noroeste 0 1010.7 0 70
2020-03-30 00:00:00 18.2 4 Noroeste 14 Noroeste 0 1011 0.7 70
2020-03-29 23:00:00 18.3 6 Noroeste 14 Noroeste 0 1010.9 0.8 69
2020-03-29 22:00:00 18.5 4 Noroeste 11 Noroeste 0 1010.7 0.2 68
2020-03-29 21:00:00 18.6 5 Noroeste 13 Noroeste 0 1010.3 -0.4 68
2020-03-29 20:00:00 19.1 7 Noroeste 14 Noroeste 0 1010.1 -0.9 67
2020-03-29 19:00:00 19.7 7 Noroeste 16 Noroeste 0 1010.5 -0.8 68
2020-03-29 18:00:00 20.6 8 Noroeste 15 Noroeste 0 1010.7 -1.4 64
2020-03-29 17:00:00 20.4 6 Noroeste 13 Noroeste 0 1011 -1.9 66
2020-03-29 16:00:00 20.8 5 Oeste 10 Sudoeste 0 1011.3 -1.3 64
2020-03-29 15:00:00 20.9 4 Oeste 10 Oeste 0 1012.1 -0.9 64
2020-03-29 14:00:00 21.1 3 Sudoeste 11 Oeste 0 1012.9 0.3 63
2020-03-29 13:00:00 20.8 3 Sudoeste 13 Sudoeste 0 1012.6 0.5 63
2020-03-29 12:00:00 20.9 4 Sudoeste 11 Sudoeste 0 1013 1.3 64
2020-03-29 11:00:00 19.2 0 Calma 7 Sur 0 1012.6 1 68
2020-03-29 10:00:00 17 0 Calma 9 Este 0 1012.1 0.8 70
2020-03-29 09:00:00 15.3 7 Este 11 Este 0 1011.7 0.6 71
2020-03-29 08:00:00 15.1 7 Este 10 Este 0 1011.6 0.5 71
2020-03-29 07:00:00 15.3 8 Este 13 Este 0 1011.3 -0.3 67
2020-03-29 06:00:00 15.6 4 Este 13 Este 0 1011.1 -1.1 68
2020-03-29 05:00:00 15.8 4 Nordeste 11 Nordeste 0 1011.1 -1.5 66
2020-03-29 04:00:00 15.8 5 Este 10 Este 0 1011.6 -1.4 68
2020-03-29 00:00:00 16.3 6 Nordeste 9 Este 0 1013 0.8 65
2020-03-28 23:00:00 16.6 5 Este 9 Este 0 1013.1 1.6 71
2020-03-28 22:00:00 17.2 0 Calma 5 Este 0 1012.9 1.8 72
2020-03-28 21:00:00 17.5 2 Norte 7 Noroeste 0 1012.2 1.2 71
2020-03-28 20:00:00 17.7 3 Noroeste 9 Noroeste 0 1011.5 1 68
2020-03-28 19:00:00 18.6 6 Noroeste 14 Noroeste 0 1011.1 0.8 63
2020-03-28 18:00:00 20.1 6 Noroeste 15 Noroeste 0 1011 0.8 61
2020-03-28 17:00:00 20.2 10 Noroeste 16 Noroeste 0 1010.5 0.3 60
2020-03-28 16:00:00 22.1 9 Noroeste 17 Oeste 0 1010.3 -0.5 55
2020-03-28 15:00:00 21.6 6 Noroeste 17 Noroeste 0 1010.2 -0.9 56
2020-03-28 14:00:00 21.2 9 Noroeste 17 Noroeste 0 1010.2 -0.8 56
2020-03-28 13:00:00 21.6 7 Oeste 17 Oeste 0 1010.8 -0.2 55
2020-03-28 12:00:00 20.6 7 Oeste 14 Noroeste 0 1011.1 0.4 56
2020-03-28 11:00:00 19.5 6 Noroeste 14 Oeste 0 1011 1 58
2020-03-28 10:00:00 18.7 4 Sur 9 Sudeste 0 1011 1.6 61
2020-03-28 09:00:00 16.3 2 Este 12 Este 0 1010.7 1.9 63
2020-03-28 08:00:00 14.7 6 Este 14 Este 0 1010 1.5 66
2020-03-28 07:00:00 14.2 9 Este 16 Este 0 1009.4 1.2 67
2020-03-28 06:00:00 14.4 9 Este 16 Este 0 1008.8 0.6 66
2020-03-28 05:00:00 14.8 9 Este 15 Este 0 1008.5 0.2 64
2020-03-28 04:00:00 15 9 Este 17 Este 0 1008.2 -0.3 63
2020-03-28 03:00:00 15.5 8 Este 14 Sudeste 0 1008.2 -0.7 62
2020-03-28 02:00:00 15.6 7 Sudeste 12 Sudeste 0 1008.3 -0.3 60
2020-03-28 01:00:00 15.4 5 Sudoeste 18 Noroeste 0 1008.5 0 62
2020-03-28 00:00:00 16.1 4 Norte 16 Nordeste 0 1008.9 1.4 58
2020-03-27 23:00:00 17.1 8 Norte 31 Noroeste 0 1008.6 1.8 54
2020-03-27 22:00:00 17 17 Noroeste 35 Noroeste 0 1008.5 2.2 57
2020-03-27 21:00:00 17.4 20 Noroeste 42 Noroeste 0 1007.5 1.6 56
2020-03-27 20:00:00 17.5 16 Noroeste 37 Noroeste 0 1006.8 0.4 55
2020-03-27 19:00:00 18.1 21 Noroeste 38 Noroeste 0 1006.3 -0.4 54
2020-03-27 18:00:00 19.4 13 Noroeste 35 Noroeste 0 1005.9 -1.3 64
2020-03-27 17:00:00 17.3 21 Noroeste 36 Noroeste 0 1006.4 -1 75
2020-03-27 16:00:00 20 13 Noroeste 22 Noroeste 0 1006.7 -1.1 66
2020-03-27 15:00:00 19.2 12 Noroeste 22 Noroeste 0 1007.2 -1.1 71
2020-03-27 14:00:00 19.7 14 Noroeste 24 Norte 0 1007.4 -0.9 64
2020-03-27 13:00:00 20.5 12 Noroeste 21 Noroeste 0 1007.8 -0.2 66
2020-03-27 12:00:00 19.9 10 Noroeste 20 Noroeste 0 1008.3 0.7 70
2020-03-27 11:00:00 19.3 8 Noroeste 18 Noroeste 0 1008.3 1.2 70
2020-03-27 10:00:00 18.7 8 Noroeste 17 Noroeste 0 1008 1.2 73
2020-03-27 09:00:00 17.3 2 Norte 8 Nordeste 0 1007.6 1.3 75
2020-03-27 08:00:00 15.7 4 Nordeste 11 Nordeste 0 1007.1 0.9 77
2020-03-27 07:00:00 15.3 4 Nordeste 9 Este 0 1006.8 0.2 75
2020-03-27 06:00:00 15.1 6 Este 9 Nordeste 0 1006.3 -0.6 75
2020-03-27 05:00:00 15.6 5 Este 9 Este 0 1006.2 -1.2 75
2020-03-27 04:00:00 16.1 5 Este 9 Este 0 1006.6 -1.1 73
2020-03-27 03:00:00 16.2 3 Este 7 Nordeste 0 1006.9 -1.1 70
2020-03-27 02:00:00 17.1 2 Nordeste 10 Este 0 1007.4 -0.6 68
2020-03-27 01:00:00 16.6 5 Este 12 Este 0 1007.7 0 68
2020-03-27 00:00:00 16.6 7 Este 12 Este 0 1008 0.6 68
2020-03-26 23:00:00 16.8 6 Este 12 Este 0 1008 0.9 69
2020-03-26 22:00:00 16.9 6 Este 12 Sur 0 1007.7 0.7 68
2020-03-26 21:00:00 17.4 6 Sudeste 13 Sur 0 1007.4 0.4 71
2020-03-26 20:00:00 18 6 Sudeste 16 Sur 0 1007.1 0 71
2020-03-26 19:00:00 18.7 8 Sudeste 18 Sur 0 1007 -0.2 66
2020-03-26 18:00:00 19.5 9 Sur 15 Sur 0 1007 -0.6 61
2020-03-26 17:00:00 20.4 6 Sur 12 Sur 0 1007.1 -0.9 62
2020-03-26 16:00:00 21.4 5 Sudoeste 15 Oeste 0 1007.2 -1.4 60
2020-03-26 15:00:00 20.5 8 Noroeste 18 Oeste 0 1007.6 -1.6 63
2020-03-26 14:00:00 21.8 9 Noroeste 16 Oeste 0 1008 -1.1 60
2020-03-26 13:00:00 20.1 4 Oeste 13 Oeste 0 1008.6 -0.3 64
2020-03-26 12:00:00 19.2 6 Noroeste 13 Norte 0 1009.2 0.6 64
2020-03-26 11:00:00 19.6 5 Noroeste 12 Noroeste 0 1009.1 0.8 61
2020-03-26 10:00:00 18.6 3 Noroeste 9 Noroeste 0 1008.9 1.1 70
2020-03-26 09:00:00 17.6 0 Calma 9 Sudeste 0 1008.6 1.3 71
2020-03-26 08:00:00 16.2 6 Este 13 Sudeste 0 1008.3 1.2 71
2020-03-26 07:00:00 16 7 Sudeste 14 Sudeste 0 1007.8 0.4 75
2020-03-26 06:00:00 16.6 8 Este 13 Sudeste 0 1007.3 -0.7 74
2020-03-26 05:00:00 17.2 3 Este 6 Sudeste 0 1007.1 -1.3 74
2020-03-26 04:00:00 16.9 5 Norte 14 Norte 0 1007.4 -1.3 72
2020-03-26 03:00:00 17.5 5 Norte 10 Norte 0 1008 -1.2 67
2020-03-26 02:00:00 17.3 8 Norte 19 Norte 0 1008.4 -1.1 61
2020-03-26 01:00:00 17.8 8 Nordeste 19 Noroeste 0 1008.7 -0.6 58
2020-03-26 00:00:00 17.9 0 Calma 7 Sudeste 0 1009.2 0.3 65
2020-03-25 23:00:00 17.9 0 Calma 8 Sudeste 0 1009.5 0.9 68
2020-03-25 22:00:00 18.3 4 Sur 11 Sudeste 0 1009.3 0.9 67
2020-03-25 21:00:00 18.3 6 Sur 11 Sudeste 0 1008.9 0.4 63
2020-03-25 20:00:00 18.4 6 Noroeste 14 Noroeste 0 1008.6 -0.3 63
2020-03-25 19:00:00 18.8 7 Noroeste 15 Noroeste 0 1008.4 -0.8 63
2020-03-25 18:00:00 19.5 9 Noroeste 15 Noroeste 0 1008.5 -1.1 63
2020-03-25 17:00:00 19.5 7 Noroeste 15 Norte 0 1008.9 -0.9 63
2020-03-25 16:00:00 19.5 8 Noroeste 14 Oeste 0 1009.2 -1.1 63
2020-03-25 15:00:00 19.8 8 Noroeste 14 Noroeste 0 1009.6 -0.9 61
2020-03-25 14:00:00 20.3 2 Oeste 15 Sudoeste 0 1009.8 -0.9 59
2020-03-25 13:00:00 21.4 7 Sudoeste 13 Sudoeste 0 1010.3 -0.3 57
2020-03-25 12:00:00 20.7 4 Oeste 12 Sudoeste 0 1010.5 0.3 58
2020-03-25 11:00:00 20.7 4 Sudoeste 12 Sudoeste 0 1010.7 0.8 60
2020-03-25 10:00:00 20.3 6 Sudoeste 14 Sudoeste 0 1010.6 1.3 63
2020-03-25 09:00:00 18 0 Calma 5 Este 0 1010.2 1.4 68
2020-03-25 08:00:00 17.3 0 Calma 9 Nordeste 0 1009.9 1.5 70
2020-03-25 07:00:00 17.2 3 Este 8 Este 0 1009.3 0.5 70
2020-03-25 06:00:00 17.2 2 Este 7 Este 0 1008.8 -0.1 70
2020-03-25 05:00:00 17.3 0 Calma 7 Sur 0 1008.4 -1.3 71
2020-03-25 04:00:00 17.2 2 Sudeste 8 Sudeste 0 1008.8 -1.3 70
2020-03-25 03:00:00 17.1 5 Sudeste 13 Este 0 1008.9 -1.4 68
2020-03-25 02:00:00 16.7 7 Este 13 Sudeste 0 1009.7 -0.9 66
2020-03-25 01:00:00 16.6 6 Este 12 Nordeste 0 1010.1 -0.4 64
2020-03-25 00:00:00 16.8 10 Este 14 Nordeste 0 1010.3 0.3 63
2020-03-24 23:00:00 17.3 7 Nordeste 14 Nordeste 0 1010.6 1.5 65
2020-03-24 22:00:00 17.3 2 Sudeste 24 Sur 0 1010.5 1.8 69
2020-03-24 21:00:00 17.9 6 Sudeste 26 Sur 0 1010 1.2 70
2020-03-24 20:00:00 18.3 13 Sudeste 28 Sur 0 1009.1 0.2 66
2020-03-24 19:00:00 19.3 13 Sur 28 Sudeste 0 1008.7 -0.6 59
2020-03-24 18:00:00 20.7 0 Calma 35 Noroeste 0 1008.8 -0.9 56
2020-03-24 17:00:00 20.7 16 Noroeste 31 Noroeste 0 1008.9 -1.3 59
2020-03-24 16:00:00 23.8 7 Sudoeste 22 Sur 0 1009.3 -1.5 49
2020-03-24 15:00:00 24.1 13 Sur 21 Sur 0 1009.7 -1.5 49
2020-03-24 14:00:00 23 10 Sur 17 Sur 0 1010.2 -0.8 55
2020-03-24 13:00:00 23.3 9 Sudoeste 18 Sudoeste 0 1010.8 0.2 56
2020-03-24 12:00:00 22.4 8 Sur 15 Sudoeste 0 1011.2 0.7 60
2020-03-24 11:00:00 21.3 6 Sur 18 Sur 0 1011 1 65
2020-03-24 10:00:00 19.3 4 Sudoeste 9 Sudoeste 0 1010.6 1 70
2020-03-24 09:00:00 17.3 0 Calma 11 Este 0 1010.5 1.3 71
2020-03-24 08:00:00 15.6 6 Este 13 Este 0 1010 0.8 71
2020-03-24 07:00:00 15.4 8 Este 13 Este 0 1009.6 0.5 71
2020-03-24 06:00:00 15.7 6 Este 9 Nordeste 0 1009.2 0.1 71
2020-03-24 05:00:00 16.4 5 Este 14 Este 0 1009.2 -0.3 71
2020-03-24 04:00:00 16.2 7 Este 14 Este 0 1009.1 -0.7 71
2020-03-24 03:00:00 16.1 6 Este 14 Este 0 1009.1 -0.5 65
2020-03-24 02:00:00 16.3 8 Este 15 Este 0 1009.5 -0.1 68
2020-03-24 01:00:00 16.7 5 Este 9 Sudeste 0 1009.8 0.7 69
2020-03-24 00:00:00 17.1 4 Este 13 Sudeste 0 1009.6 1.4 62
2020-03-23 23:00:00 17.5 2 Sudeste 16 Sur 0 1009.6 2.2 65
2020-03-23 22:00:00 17.4 6 Sudeste 13 Sudeste 0 1009.1 2.2 66
2020-03-23 21:00:00 17.8 4 Sudeste 13 Sur 0 1008.2 1.7 64
2020-03-23 20:00:00 18.4 5 Sudeste 17 Sur 0 1007.4 1.5 63
2020-03-23 19:00:00 19.8 8 Sur 18 Sur 0 1006.9 1.4 59
2020-03-23 18:00:00 21.9 9 Sur 23 Sur 0 1006.5 1 55
2020-03-23 17:00:00 21.8 13 Sur 28 Sur 0 1005.9 0 54
2020-03-23 16:00:00 23.5 12 Sur 26 Sur 0 1005.5 -0.6 52
2020-03-23 15:00:00 23.1 12 Sur 28 Sur 0 1005.5 -1.5 52
2020-03-23 14:00:00 20.9 11 Sur 24 Sur 0 1005.9 -0.5 54
2020-03-23 13:00:00 22.6 10 Sur 21 Sur 0 1006.1 0 56
2020-03-23 12:00:00 22 7 Sudoeste 21 Sur 0 1007 1.6 60
2020-03-23 11:00:00 20 9 Sur 21 Sur 0.1 1006.4 1.3 64
2020-03-23 10:00:00 17.7 6 Sur 15 Sur 0 1006.1 1.2 71
2020-03-23 09:00:00 15.9 8 Sudeste 18 Sudeste 0 1005.4 1.1 70
2020-03-23 08:00:00 15.5 5 Nordeste 13 Norte 0 1005.1 1.1 72
2020-03-23 07:00:00 15 5 Norte 34 Oeste 0 1004.9 0.8 72
2020-03-23 06:00:00 15.9 18 Noroeste 41 Noroeste 0 1004.3 -0.3 73
2020-03-23 05:00:00 15.6 11 Norte 30 Norte 0 1004 -1.1 68
2020-03-23 04:00:00 14.5 10 Este 33 Noroeste 0 1004.1 -2.3 75
2020-03-23 03:00:00 14 4 Nordeste 45 Norte 1 1004.6 -1.6 84
2020-03-23 02:00:00 14.5 20 Noroeste 41 Norte 2.4 1005.1 -1.5 82
2020-03-23 01:00:00 14.3 14 Norte 46 Noroeste 0.6 1006.4 -0.7 83
2020-03-23 00:00:00 15.2 12 Norte 41 Norte 0 1006.2 -0.5 71
2020-03-22 23:00:00 15.6 15 Noroeste 37 Noroeste 0.1 1006.6 -0.1 72
2020-03-22 22:00:00 15.3 17 Norte 45 Noroeste 0.3 1007.1 0.4 86
2020-03-22 21:00:00 16 17 Noroeste 42 Noroeste 0.1 1006.7 0.4 81
2020-03-22 20:00:00 16.2 21 Noroeste 42 Noroeste 0 1006.7 0.5 78
2020-03-22 19:00:00 17.3 23 Noroeste 41 Noroeste 0 1006.7 -0.2 69
2020-03-22 18:00:00 18.3 23 Noroeste 46 Noroeste 0 1006.3 -0.9 61
2020-03-22 17:00:00 19 23 Noroeste 42 Noroeste 0 1006.2 -2.9 56
2020-03-22 16:00:00 19.3 20 Noroeste 47 Noroeste 0 1006.9 -2.7 64
2020-03-22 15:00:00 18.3 22 Noroeste 44 Noroeste 0.6 1007.2 -3 67
2020-03-22 14:00:00 16.6 19 Noroeste 43 Norte 0 1009.1 -1.5 89
2020-03-22 13:00:00 20.4 18 Noroeste 31 Norte 0 1009.6 -1 62
2020-03-22 12:00:00 20 15 Noroeste 30 Noroeste 0 1010.2 -0.4 63
2020-03-22 11:00:00 19.6 13 Noroeste 26 Noroeste 0 1010.6 0.3 64
2020-03-22 10:00:00 18.4 15 Noroeste 31 Noroeste 0 1010.6 0.4 67
2020-03-22 09:00:00 16.7 0 Calma 18 Sudeste 0 1010.6 0.3 64
2020-03-22 08:00:00 15 3 Sur 18 Norte 0 1010.3 -0.2 68
2020-03-22 07:00:00 14.9 4 Este 13 Sudeste 0 1010.2 -0.9 73
2020-03-22 06:00:00 14.9 5 Este 14 Sudeste 0 1010.3 -1.4 72
2020-03-22 05:00:00 15.4 10 Sudeste 23 Noroeste 0 1010.5 -1.9 74
2020-03-22 04:00:00 15.8 11 Noroeste 23 Oeste 0 1011.1 -2.1 75
2020-03-22 03:00:00 16 4 Este 10 Este 0 1011.7 -1.7 64
2020-03-22 02:00:00 16.8 5 Este 11 Sudeste 0 1012.4 -1 60
2020-03-22 01:00:00 16.9 6 Sudeste 13 Este 0 1013.2 -0.3 59
2020-03-22 00:00:00 16.8 6 Este 12 Sudeste 0 1013.4 0.3 60
2020-03-21 23:00:00 16.8 6 Sudeste 11 Sur 0 1013.4 0.7 61
2020-03-21 22:00:00 17.5 6 Sur 18 Sudeste 0 1013.5 1.2 60
2020-03-21 21:00:00 17.7 7 Sudeste 17 Sur 0 1013.1 0.7 59
2020-03-21 20:00:00 18.2 9 Sur 19 Sur 0 1012.7 0.3 58
2020-03-21 19:00:00 19.3 8 Sur 18 Sur 0 1012.3 -0.3 54
2020-03-21 18:00:00 20.6 10 Sur 18 Sur 0 1012.4 -0.8 50
2020-03-21 17:00:00 22.1 10 Sur 19 Sudoeste 0 1012.4 -1.5 48
2020-03-21 16:00:00 22.9 9 Sur 21 Sudoeste 0 1012.6 -2.1 47
2020-03-21 15:00:00 24.1 10 Sudoeste 19 Sudoeste 0 1013.2 -2 44
2020-03-21 14:00:00 22.4 9 Sur 15 Sudoeste 0 1013.9 -1.1 46
2020-03-21 13:00:00 21.7 6 Sudoeste 13 Sudoeste 0 1014.7 -0.2 49
2020-03-21 12:00:00 20.1 7 Oeste 17 Oeste 0 1015.2 0.7 53
2020-03-21 11:00:00 19 5 Sur 14 Norte 0 1015 1.1 55
2020-03-21 10:00:00 18.3 0 Calma 23 Nordeste 0 1014.9 1.5 54
2020-03-21 09:00:00 17.4 9 Nordeste 24 Este 0 1014.5 1.5 54
2020-03-21 08:00:00 16.9 10 Este 25 Este 0 1013.9 1.1 56
2020-03-21 07:00:00 17 8 Este 18 Nordeste 0 1013.4 0.6 58
2020-03-21 06:00:00 17 4 Este 10 Nordeste 0 1013 0 71
2020-03-21 05:00:00 16.8 0 Calma 15 Este 0 1012.8 -0.6 70
2020-03-21 04:00:00 15.8 7 Este 14 Este 0 1012.8 -1 68
2020-03-21 03:00:00 16.1 7 Este 13 Este 0 1013 -1.2 68
2020-03-21 02:00:00 16.4 6 Este 12 Este 0 1013.4 -1 68
2020-03-21 01:00:00 16.5 5 Este 13 Este 0 1013.8 -0.5 69
2020-03-21 00:00:00 16.6 7 Este 12 Este 0 1014.2 0.2 68
2020-03-20 23:00:00 17.3 5 Este 10 Este 0 1014.4 1.1 68
2020-03-20 22:00:00 17.7 2 Sudeste 12 Sur 0 1014.3 1.6 72
2020-03-20 21:00:00 18.1 4 Sur 16 Sur 0 1014 1.6 72
2020-03-20 20:00:00 18.8 8 Sur 17 Sudeste 0 1013.3 1.1 69
2020-03-20 19:00:00 19.9 7 Sur 16 Sudeste 0 1012.7 0.7 66
2020-03-20 18:00:00 21.4 8 Sur 20 Sur 0 1012.4 -0.2 59
2020-03-20 17:00:00 22.8 11 Sur 23 Sur 0 1012.2 -1.1 54
2020-03-20 16:00:00 24.1 9 Sur 18 Sur 0 1012 -1.5 51
2020-03-20 15:00:00 25.6 9 Sur 19 Sudoeste 0 1012.6 -1.2 49
2020-03-20 14:00:00 24.5 7 Sudoeste 18 Sudoeste 0 1013.3 -0.1 53
2020-03-20 13:00:00 24 9 Sur 17 Sur 0 1013.5 0.4 57
2020-03-20 12:00:00 22.4 7 Sudoeste 15 Sudoeste 0 1013.8 1 66
2020-03-20 11:00:00 20.9 4 Sudoeste 9 Sudoeste 0 1013.4 1.5 68
2020-03-20 10:00:00 19.9 3 Sudoeste 9 Sur 0 1013.1 1.9 73
2020-03-20 09:00:00 18 0 Calma 10 Este 0 1012.8 1.6 80
2020-03-20 08:00:00 16.6 6 Este 13 Este 0 1011.9 1.2 78
2020-03-20 07:00:00 16.4 9 Este 14 Este 0 1011.2 0.3 79
2020-03-20 06:00:00 16.6 7 Este 11 Este 0 1011.2 -0.1 80
2020-03-20 05:00:00 16.7 6 Este 11 Este 0 1010.7 -1.1 80
2020-03-20 04:00:00 16.9 5 Este 10 Este 0 1010.9 -1.2 80
2020-03-20 03:00:00 17.3 5 Este 14 Este 0 1011.3 -1.2 79
2020-03-20 02:00:00 17.5 8 Sudeste 12 Este 0 1011.8 -0.9 80
2020-03-20 01:00:00 17.7 5 Sudeste 11 Sudeste 0 1012.1 -0.6 80
2020-03-20 00:00:00 17.9 4 Sudeste 8 Sudeste 0 1012.5 0.1 79
2020-03-19 23:00:00 18.3 3 Sudeste 15 Sudeste 0 1012.7 0.7 78
2020-03-19 22:00:00 18.5 5 Sudeste 10 Sudeste 0 1012.7 0.8 75
2020-03-19 21:00:00 18.7 5 Sudeste 9 Sudeste 0 1012.4 1.4 74
2020-03-19 20:00:00 19.4 2 Sur 12 Sudoeste 0 1012 1.3 73
2020-03-19 19:00:00 20.6 6 Sudoeste 14 Sur 0 1011.9 1.2 69
2020-03-19 18:00:00 21.5 10 Sur 23 Sur 0 1011 0.1 65
2020-03-19 17:00:00 22.1 12 Sur 26 Sur 0 1010.7 -0.3 64
2020-03-19 16:00:00 23 12 Sur 24 Sudoeste 0 1010.7 -1.1 62
2020-03-19 15:00:00 22.3 10 Sur 20 Sur 0 1010.9 -1.2 59
2020-03-19 14:00:00 24.3 12 Sur 20 Sur 0 1011 -1.5 54
2020-03-19 13:00:00 24.3 8 Sur 18 Sur 0 1011.8 -0.6 54
2020-03-19 12:00:00 23 8 Sur 16 Sur 0 1012.1 0.4 52
2020-03-19 11:00:00 21.8 7 Sur 12 Sur 0 1012.5 1.3 56
2020-03-19 10:00:00 19.5 4 Sudoeste 11 Sur 0 1012.4 1.7 60
2020-03-19 09:00:00 17.4 3 Este 13 Este 0 1011.7 1.3 65
2020-03-19 08:00:00 16 6 Este 11 Este 0 1011.2 0.6 67
2020-03-19 07:00:00 15.8 7 Este 13 Este 0 1010.7 -0.1 66
2020-03-19 06:00:00 15.6 7 Este 14 Este 0 1010.4 -0.6 67
2020-03-19 05:00:00 16 8 Este 15 Este 0 1010.6 -0.7 65
2020-03-19 04:00:00 16 8 Este 15 Este 0 1010.8 -0.7 67
2020-03-19 03:00:00 16.1 8 Este 14 Este 0 1011 -0.8 68
2020-03-19 02:00:00 16.5 5 Sudeste 12 Este 0 1011.3 -0.5 68
2020-03-19 01:00:00 16.8 5 Este 13 Este 0 1011.5 -0.4 68
2020-03-19 00:00:00 17 6 Sudeste 13 Sur 0 1011.8 0.4 67
2020-03-18 23:00:00 17 7 Este 12 Este 0 1011.8 0.9 63
2020-03-18 22:00:00 17.4 0 Calma 14 Sur 0 1011.9 0.9 67
2020-03-18 21:00:00 18 5 Sur 18 Sur 0 1011.4 0.5 62
2020-03-18 20:00:00 18.5 8 Sur 18 Sudeste 0 1010.9 0.1 57
2020-03-18 19:00:00 20.1 6 Sur 18 Sudoeste 0 1011 0 53
2020-03-18 18:00:00 21.1 8 Sur 19 Sur 0 1010.9 -0.4 53
2020-03-18 17:00:00 22.1 10 Sur 19 Sur 0 1010.8 -1 49
2020-03-18 16:00:00 24.2 7 Sur 17 Sudoeste 0 1011 -1.7 46
2020-03-18 15:00:00 24.3 7 Sur 17 Sudoeste 0 1011.3 -1.7 48
2020-03-18 14:00:00 23.7 9 Sudoeste 17 Sudoeste 0 1011.8 -1.3 52
2020-03-18 13:00:00 22 5 Sudoeste 14 Sur 0 1012.7 -0.5 56
2020-03-18 12:00:00 21.8 6 Sur 16 Sur 0 1013 0.3 59
2020-03-18 11:00:00 20.8 8 Sur 14 Sur 0 1013.1 0.9 63
2020-03-18 10:00:00 18.5 5 Sudoeste 11 Sur 0 1013.2 1.2 71
2020-03-18 09:00:00 17.1 0 Calma 9 Este 0 1012.7 1.2 71
2020-03-18 08:00:00 15.9 5 Este 12 Este 0 1012.2 0.8 72
2020-03-18 07:00:00 15.6 5 Este 9 Este 0 1012 0.5 73
2020-03-18 06:00:00 16 4 Nordeste 16 Este 0 1011.5 -0.5 73
2020-03-18 05:00:00 15.7 5 Este 11 Este 0 1011.4 -0.9 72
2020-03-18 04:00:00 15.5 5 Este 10 Este 0 1011.5 -1.3 74
2020-03-18 03:00:00 15.8 5 Este 12 Este 0 1012 -1.2 74
2020-03-18 02:00:00 16.1 6 Este 11 Sudeste 0 1012.3 -1.4 74
2020-03-18 01:00:00 16.7 4 Sudeste 10 Este 0 1012.8 -0.9 73
2020-03-18 00:00:00 17 3 Este 9 Sudeste 0 1013.2 -0.3 71
2020-03-17 23:00:00 17.2 2 Sur 15 Sudeste 0 1013.7 0.7 71
2020-03-17 22:00:00 17.3 13 Sudeste 28 Sudeste 0 1013.7 1.2 68
2020-03-17 21:00:00 17.7 0 Calma 10 Sudoeste 0 1013.5 1.1 68
2020-03-17 20:00:00 18.2 0 Calma 8 Sur 0 1013 0.8 67
2020-03-17 19:00:00 19.1 5 Sur 15 Sur 0 1012.5 0.2 63
2020-03-17 18:00:00 19.6 6 Sur 18 Sur 0 1012.4 -0.2 59
2020-03-17 17:00:00 20.9 8 Sur 17 Sudeste 0 1012.2 -0.6 56
2020-03-17 16:00:00 21.3 6 Sur 14 Sudoeste 0 1012.3 -1.2 55
2020-03-17 15:00:00 21.9 6 Sudoeste 17 Sur 0 1012.6 -1.1 53
2020-03-17 14:00:00 23.1 10 Sudoeste 20 Sur 0 1012.8 -0.9 52
2020-03-17 13:00:00 21.4 7 Sur 23 Sudeste 0 1013.5 -0.6 54
2020-03-17 12:00:00 20.7 10 Noroeste 35 Sur 0 1013.7 -0.1 54
2020-03-17 11:00:00 18.8 7 Este 34 Sudeste 0 1013.7 0.5 53
2020-03-17 10:00:00 18.3 5 Nordeste 28 Nordeste 0 1014.1 1.2 56
2020-03-17 09:00:00 17 7 Sudeste 31 Este 0 1013.8 1.5 59
2020-03-17 08:00:00 16.7 9 Sudeste 33 Nordeste 0 1013.2 1.4 57
2020-03-17 07:00:00 16.9 11 Nordeste 42 Norte 0 1012.9 0.9 59
2020-03-17 06:00:00 16.7 10 Nordeste 31 Este 0 1012.3 0.1 56
2020-03-17 05:00:00 16.7 12 Nordeste 33 Nordeste 0 1011.8 -0.9 57
2020-03-17 04:00:00 17.3 10 Nordeste 38 Este 0 1012 -0.9 53
2020-03-17 03:00:00 17.2 6 Nordeste 29 Este 0 1012.2 -1.2 56
2020-03-17 02:00:00 17.6 8 Este 23 Nordeste 0 1012.7 -0.7 55
2020-03-17 01:00:00 17.5 8 Nordeste 19 Nordeste 0 1012.9 -0.5 55
2020-03-17 00:00:00 17.7 6 Este 26 Nordeste 0 1013.4 0.2 57
2020-03-16 23:00:00 18 3 Nordeste 13 Norte 0 1013.4 0.9 60
2020-03-16 22:00:00 18.1 2 Nordeste 10 Sur 0 1013.4 1.3 66
2020-03-16 21:00:00 18.6 0 Calma 10 Sur 0 1013.2 1 67
2020-03-16 20:00:00 18.6 6 Sudeste 14 Sur 0 1012.5 -0.1 63
2020-03-16 19:00:00 19.5 7 Sur 35 Sudeste 0 1012.1 -0.4 60
2020-03-16 18:00:00 20.2 3 Oeste 25 Norte 0 1012.2 -0.6 56
2020-03-16 17:00:00 21.5 9 Sur 16 Sur 0 1012.6 -0.5 52
2020-03-16 16:00:00 21.7 6 Sur 17 Sur 0 1012.5 -1.3 51
2020-03-16 15:00:00 23.7 7 Sur 19 Sur 0 1012.8 -1.5 47
2020-03-16 14:00:00 24.2 10 Sur 18 Sur 0 1013.1 -1.4 48
2020-03-16 13:00:00 23.5 9 Sur 18 Sur 0 1013.8 -0.4 48
2020-03-16 12:00:00 21.4 6 Sur 15 Sur 0 1014.3 0.5 50
2020-03-16 11:00:00 21.7 5 Sur 35 Nordeste 0 1014.5 1.4 51
2020-03-16 10:00:00 20.2 12 Sudeste 27 Sudeste 0 1014.2 1.6 53
2020-03-16 09:00:00 17.9 5 Sudeste 30 Sur 0 1013.8 1.7 53
2020-03-16 08:00:00 17.2 4 Sudeste 25 Sudeste 0 1013.1 1.2 53
2020-03-16 07:00:00 17 9 Sudeste 40 Sudeste 0 1012.6 0.4 56
2020-03-16 06:00:00 16.7 6 Este 15 Nordeste 0 1012.1 -0.2 60
2020-03-16 05:00:00 17.2 4 Nordeste 44 Sudeste 0 1011.9 -1.3 57
2020-03-16 04:00:00 17.8 14 Sudeste 36 Sudeste 0 1012.2 -1.3 51
2020-03-16 03:00:00 17.7 12 Sudeste 30 Sudeste 0 1012.3 -1.1 56
2020-03-16 02:00:00 17.8 5 Norte 27 Sudeste 0 1013.2 -0.1 50
2020-03-16 01:00:00 17.4 3 Este 24 Sudeste 0 1013.5 0.6 56
2020-03-16 00:00:00 17.5 7 Nordeste 15 Norte 0 1013.4 0.8 58
2020-03-15 23:00:00 18.1 7 Nordeste 33 Sudeste 0 1013.3 1.4 58
2020-03-15 22:00:00 18.3 19 Sudeste 36 Sudeste 0 1012.9 1.3 52
2020-03-15 21:00:00 18.3 6 Nordeste 30 Nordeste 0 1012.6 1.5 53
2020-03-15 20:00:00 18.5 0 Calma 41 Sudeste 0 1011.9 0.8 51
2020-03-15 19:00:00 19.3 10 Sudeste 28 Nordeste 0 1011.6 0.1 60
2020-03-15 18:00:00 21 5 Sudoeste 18 Sudoeste 0 1011.1 -0.6 57
2020-03-15 17:00:00 21.5 6 Sur 15 Sur 0 1011.1 -1.5 56
2020-03-15 16:00:00 20.8 7 Sur 18 Sur 0 1011.5 -1.9 57
2020-03-15 15:00:00 23.4 8 Sudoeste 16 Sudoeste 0 1011.7 -1.5 52
2020-03-15 14:00:00 20.6 6 Sudoeste 13 Sudoeste 0 1012.6 -0.4 59
2020-03-15 13:00:00 19.7 3 Sudoeste 15 Sudoeste 0 1013.4 0.4 60
2020-03-15 12:00:00 20.3 7 Sur 14 Sur 0 1013.2 0.5 59
2020-03-15 11:00:00 20.2 5 Sur 9 Sur 0 1013 1 60
2020-03-15 10:00:00 19 5 Sudoeste 11 Sur 0 1013 1.5 63
2020-03-15 09:00:00 18 3 Sur 7 Sur 0 1012.7 1.6 64
2020-03-15 08:00:00 17 0 Calma 10 Este 0 1012 1 60
2020-03-15 07:00:00 16.4 8 Este 14 Este 0 1011.5 0.7 66
2020-03-15 06:00:00 16.3 7 Este 15 Este 0 1011.1 0 67
2020-03-15 05:00:00 16.8 6 Sudeste 10 Sudeste 0 1011 -0.5 67
2020-03-15 04:00:00 17.5 6 Este 22 Sudeste 0 1010.8 -1.2 63
2020-03-15 03:00:00 17.2 8 Este 11 Sudeste 0 1011.1 -1.1 64
2020-03-15 02:00:00 17.6 6 Este 9 Este 0 1011.5 -0.5 63
2020-03-15 01:00:00 17.9 5 Este 10 Este 0 1012 0 62
2020-03-15 00:00:00 18.1 3 Sudeste 9 Sur 0 1012.2 0.3 63
2020-03-14 23:00:00 18.4 4 Sur 10 Sur 0 1012 0.5 65
2020-03-14 22:00:00 18.5 6 Sur 12 Sudeste 0 1012 0.9 68
2020-03-14 21:00:00 18.9 4 Sudoeste 10 Sudoeste 0 1011.9 0.9 67
2020-03-14 20:00:00 19.2 0 Calma 8 Oeste 0 1011.5 0.6 65
2020-03-14 19:00:00 20.2 4 Oeste 11 Oeste 0 1011.1 0.3 60
2020-03-14 18:00:00 21.8 6 Sudoeste 19 Sudoeste 0 1011 0 59
2020-03-14 17:00:00 22.6 9 Sudoeste 17 Sudoeste 0 1010.9 -0.6 56
2020-03-14 16:00:00 22.7 6 Oeste 16 Oeste 0 1010.8 -1.2 52
2020-03-14 15:00:00 24 8 Oeste 17 Oeste 0 1011 -1.3 51
2020-03-14 14:00:00 22.5 8 Noroeste 15 Oeste 0 1011.5 -1 56
2020-03-14 13:00:00 23.4 8 Sudoeste 17 Sur 0 1012 -0.3 58
2020-03-14 12:00:00 22.5 9 Sur 17 Sur 0 1012.3 0.7 62
2020-03-14 11:00:00 20.3 4 Sur 10 Sudoeste 0 1012.5 1.2 69
2020-03-14 10:00:00 19 0 Calma 10 Noroeste 0 1012.3 1.2 74
2020-03-14 09:00:00 18 4 Este 12 Este 0 1011.6 0.8 73
2020-03-14 08:00:00 16.8 7 Este 12 Este 0 1011.3 0.8 76
2020-03-14 07:00:00 16.7 8 Este 13 Este 0 1011.1 0.3 76
2020-03-14 06:00:00 17.1 7 Este 13 Este 0 1010.8 -0.4 77
2020-03-14 05:00:00 17 5 Nordeste 10 Este 0 1010.5 -1.1 71
2020-03-14 04:00:00 17.1 6 Este 9 Nordeste 0 1010.8 -1.2 71
2020-03-14 03:00:00 17.4 5 Este 12 Este 0 1011.2 -1.1 71
2020-03-14 02:00:00 17.7 7 Nordeste 10 Nordeste 0 1011.6 -0.9 74
2020-03-14 01:00:00 17.9 3 Nordeste 6 Nordeste 0 1012 -0.3 76
2020-03-14 00:00:00 18 3 Nordeste 8 Este 0 1012.3 0.7 78
2020-03-13 23:00:00 18.2 5 Este 7 Este 0 1012.5 1.4 77
2020-03-13 22:00:00 18.4 3 Este 8 Nordeste 0 1012.3 1.5 79
2020-03-13 21:00:00 18.7 6 Norte 12 Noroeste 0 1011.6 0.6 79
2020-03-13 20:00:00 19.2 3 Norte 11 Sur 0 1011.1 -0.1 76
2020-03-13 19:00:00 19.8 7 Sur 14 Sur 0 1010.8 -0.2 74
2020-03-13 18:00:00 20.9 4 Sur 10 Sur 0 1011 -0.1 72
2020-03-13 17:00:00 20.7 6 Noroeste 21 Noroeste 0 1011.2 -0.4 71
2020-03-13 16:00:00 21.2 13 Noroeste 20 Noroeste 0 1011 -1.2 70
2020-03-13 15:00:00 22.4 9 Noroeste 16 Noroeste 0 1011.1 -1.2 66
2020-03-13 14:00:00 23 6 Sur 17 Sur 0 1011.6 -0.6 70
2020-03-13 13:00:00 22.1 10 Sur 16 Sur 0 1012.2 0.3 70
2020-03-13 12:00:00 21.6 4 Sudoeste 9 Sur 0 1012.3 1 70
2020-03-13 11:00:00 20.9 4 Sudoeste 7 Sudoeste 0 1012.2 1.4 77
2020-03-13 10:00:00 19.8 0 Calma 8 Sur 0 1011.9 1.5 86
2020-03-13 09:00:00 18.7 3 Sudeste 11 Este 0 1011.3 1.4 90
2020-03-13 08:00:00 17.8 6 Este 11 Nordeste 0 1010.8 0.7 91
2020-03-13 07:00:00 17.7 7 Nordeste 11 Nordeste 0 1010.4 0.4 91
2020-03-13 06:00:00 17.6 5 Este 12 Sudeste 0 1009.9 -0.4 91
2020-03-13 05:00:00 17.8 6 Sudeste 11 Sudeste 0 1010.1 -0.7 93
2020-03-13 04:00:00 17.9 5 Este 9 Este 0 1010 -1.3 93
2020-03-13 03:00:00 18 4 Sudeste 10 Sudeste 0 1010.3 -1.2 93
2020-03-13 02:00:00 17.9 2 Sur 6 Este 0 1010.8 -0.7 93
2020-03-13 01:00:00 17.7 5 Este 8 Nordeste 0 1011.3 -0.2 93
2020-03-13 00:00:00 18.2 5 Este 7 Nordeste 0 1011.5 0.6 92
2020-03-12 23:00:00 18.4 3 Este 5 Este 0 1011.5 0.9 89
2020-03-12 22:00:00 18.7 0 Calma 4 Este 0 1011.5 1 86
2020-03-12 21:00:00 18.8 0 Calma 2 Sudeste 0 1010.9 0.7 82
2020-03-12 20:00:00 19.6 0 Calma 4 Noroeste 0 1010.6 0.6 78
2020-03-12 19:00:00 20.5 3 Noroeste 9 Oeste 0 1010.5 0.5 71
2020-03-12 18:00:00 22.2 3 Oeste 11 Sur 0 1010.2 0 67
2020-03-12 17:00:00 22.9 6 Sur 13 Sudoeste 0 1010 -0.9 64
2020-03-12 16:00:00 24.3 6 Sur 13 Sur 0 1010 -1.5 60
2020-03-12 15:00:00 24.4 6 Sudoeste 11 Sudoeste 0 1010.2 -1.7 59
2020-03-12 14:00:00 23.2 5 Sudoeste 13 Sudoeste 0 1010.9 -1.1 70
2020-03-12 13:00:00 21.6 6 Noroeste 15 Noroeste 0 1011.5 -0.1 76
2020-03-12 12:00:00 20.4 6 Noroeste 13 Noroeste 0 1011.9 1 83
2020-03-12 11:00:00 20.2 6 Noroeste 12 Oeste 0 1012 1.8 85
2020-03-12 10:00:00 19.5 3 Oeste 9 Noroeste 0 1011.6 2.1 88
2020-03-12 09:00:00 17.8 4 Nordeste 8 Nordeste 0 1010.9 1.8 90
2020-03-12 08:00:00 16.6 4 Nordeste 10 Nordeste 0 1010.2 1.3 83
2020-03-12 07:00:00 17 6 Nordeste 13 Nordeste 0 1009.5 0.4 93
2020-03-12 06:00:00 17.1 8 Norte 15 Norte 0 1009.1 -0.5 94
2020-03-12 05:00:00 16.6 4 Nordeste 9 Este 0 1008.9 -1.3 75
2020-03-12 04:00:00 16.1 4 Este 8 Este 0 1009.1 -1.6 84
2020-03-12 03:00:00 16.6 6 Sudeste 10 Sudeste 0 1009.6 -1.3 93
2020-03-12 02:00:00 17.2 3 Este 8 Sudeste 0 1010.2 -0.8 89
2020-03-12 01:00:00 16.5 5 Sudeste 7 Sudeste 0 1010.7 -0.4 68
2020-03-12 00:00:00 17.2 3 Nordeste 8 Sudeste 0 1010.9 0.2 60
2020-03-11 23:00:00 17.1 0 Calma 6 Este 0 1011 0.6 68
2020-03-11 22:00:00 17.6 4 Sudeste 7 Este 0 1011.1 1.1 75
2020-03-11 21:00:00 18.6 0 Calma 5 Noroeste 0 1010.7 1 86
2020-03-11 20:00:00 19.1 4 Noroeste 10 Noroeste 0 1010.4 0.8 83
2020-03-11 19:00:00 20.2 6 Noroeste 12 Noroeste 0 1010 0.3 76
2020-03-11 18:00:00 21.3 6 Noroeste 12 Oeste 0 1009.7 -0.2 70
2020-03-11 17:00:00 22.9 4 Sudoeste 11 Oeste 0 1009.6 -0.9 67
2020-03-11 16:00:00 24.6 5 Sudoeste 12 Sudoeste 0 1009.7 -- 62
2020-03-11 15:00:00 25 5 Sudoeste 12 Sudoeste 0 1009.9 -- 59
2020-03-11 14:00:00 23 6 Sudoeste -- -- -- 1010.5 -- 67
2020-03-11 13:00:00 -- -- -- -- -- -- -- -- --
2020-03-11 12:00:00 -- -- -- -- -- -- -- -- --
2020-03-11 11:00:00 -- -- -- -- -- -- -- -- --
2020-03-11 10:00:00 -- -- -- -- -- -- -- -- --
2020-03-11 09:00:00 17.4 0 Calma 8 Este 0 1010.7 1.2 78
2020-03-11 08:00:00 16.6 5 Este 8 Este 0.1 1010 -0.4 76
2020-03-11 07:00:00 16.7 3 Este 8 Norte 0 1009.6 -1 71
2020-03-11 06:00:00 17 2 Nordeste 10 Este 0 1009.5 -1.6 86
2020-03-11 05:00:00 17.6 5 Este 9 Este 0 1010.4 -0.3 88
2020-03-11 04:00:00 16.9 7 Este 11 Este 0 1010.6 -0.6 90
2020-03-11 03:00:00 17.6 4 Sudeste 8 Sudeste 0 1011.1 -1 94
2020-03-11 02:00:00 17.3 0 Calma 8 Sudeste 0 1010.7 -1.5 84
2020-03-11 01:00:00 17.5 0 Calma 12 Norte 0 1011.2 -1.2 83
2020-03-11 00:00:00 18 8 Norte 15 Nordeste 0 1012.1 0.1 89
2020-03-10 23:00:00 18.2 3 Norte 8 Norte 0 1012.2 0.6 72
2020-03-10 22:00:00 18.6 2 Norte 4 Norte 0 1012.4 0.9 90
2020-03-10 21:00:00 19 0 Calma 8 Sur 0 1012 0.4 89
2020-03-10 20:00:00 19.6 4 Sur 9 Sudoeste 0 1011.6 -0.1 87
2020-03-10 19:00:00 20.8 4 Sur 13 Sudoeste 0 1011.5 -0.3 81
2020-03-10 18:00:00 22.5 8 Sudoeste 15 Sudoeste 0 1011.6 -0.6 75
2020-03-10 17:00:00 21.9 5 Oeste 17 Oeste 0 1011.7 -0.9 76
2020-03-10 16:00:00 23.6 10 Oeste 19 Oeste 0 1011.8 -1.4 69
2020-03-10 15:00:00 25.7 5 Sur 12 Sur 0 1012.2 -1.2 61
2020-03-10 14:00:00 25.1 6 Sudoeste 15 Sur 0 1012.6 -1 57
2020-03-10 13:00:00 25.4 7 Sur 12 Sur 0 1013.2 -0.4 52
2020-03-10 12:00:00 24.8 5 Sur 12 Sudoeste 0 1013.4 0.3 46
2020-03-10 11:00:00 23 4 Sudoeste 9 Sudoeste 0 1013.6 1.2 50
2020-03-10 10:00:00 21.3 3 Sudoeste 7 Sudeste 0 1013.6 1.7 60
2020-03-10 09:00:00 19.1 4 Sudeste 10 Sudeste 0 1013.1 1.5 67
2020-03-10 08:00:00 18.8 4 Sudeste 13 Sur 0 1012.4 0.9 52
2020-03-10 07:00:00 18.8 6 Sudeste 14 Sudeste 0 1011.9 0 48
2020-03-10 06:00:00 19 9 Sudeste 14 Sur 0 1011.6 -1.1 55
2020-03-10 05:00:00 20.2 6 Sudeste 23 Este 0 1011.5 -2 39
2020-03-10 04:00:00 18.2 5 Nordeste 12 Este 0 1011.9 -2.1 54
2020-03-10 03:00:00 17.9 6 Este 11 Este 0 1012.7 -1.3 89
2020-03-10 02:00:00 18 4 Este 9 Sudeste 0 1013.5 -0.8 91
2020-03-10 01:00:00 18.5 5 Norte 16 Noroeste 0 1014 -0.2 92
2020-03-10 00:00:00 17.9 3 Norte 8 Noroeste 0 1014 0.1 74
2020-03-09 23:00:00 18.2 3 Nordeste 8 Noroeste 0 1014.3 0.7 89
2020-03-09 22:00:00 18.5 0 Calma 6 Norte 0 1014.2 0.9 82
2020-03-09 21:00:00 19.4 3 Norte 5 Nordeste 0 1013.9 0.6 90
2020-03-09 20:00:00 19.7 0 Calma 11 Sur 0 1013.6 0.3 85
2020-03-09 19:00:00 21.2 7 Sur 14 Sur 0 1013.3 -0.1 80
2020-03-09 18:00:00 23.6 8 Sur 14 Sur 0 1013.3 -0.7 69
2020-03-09 17:00:00 25.1 4 Sur 12 Oeste 0 1013.3 -1.2 52
2020-03-09 16:00:00 25 6 Noroeste 14 Noroeste 0 1013.4 -2 49
2020-03-09 15:00:00 26.3 5 Sudoeste 11 Sudoeste 0 1014 -1.9 52
2020-03-09 14:00:00 25.2 6 Sudoeste 13 Sur 0 1014.5 -1.5 57
2020-03-09 13:00:00 24.1 6 Sudoeste 12 Sudoeste 0 1015.4 -0.1 66
2020-03-09 12:00:00 21.8 4 Noroeste 15 Noroeste 0 1015.9 1.2 74
2020-03-09 11:00:00 21.5 5 Oeste 14 Noroeste 0 1016 2.1 79
2020-03-09 10:00:00 20.5 9 Sudeste 17 Sudeste 0 1015.5 2.3 83
2020-03-09 09:00:00 18.4 3 Este 12 Sudeste 0 1014.7 1.9 90
2020-03-09 08:00:00 16.8 5 Sudeste 11 Sur 0 1013.9 1.4 87
2020-03-09 07:00:00 17.4 8 Sudeste 18 Sudeste 0 1013.2 0.6 87
2020-03-09 06:00:00 17.4 10 Sudeste 19 Sur 0 1012.8 -0.2 89
2020-03-09 05:00:00 17.4 8 Sudeste 16 Sudeste 0 1012.5 -0.8 92
2020-03-09 04:00:00 17.4 7 Sudeste 15 Sudeste 0 1012.6 -1.2 89
2020-03-09 03:00:00 17.9 6 Sudeste 16 Sudeste 0 1013 -1.1 85
2020-03-09 02:00:00 17.4 6 Sudeste 17 Sudeste 0 1013.3 -0.8 75
2020-03-09 01:00:00 17.4 2 Este 13 Sudeste 0 1013.8 0.1 86
2020-03-09 00:00:00 17.9 4 Sudeste 10 Este 0 1014.1 0.8 89